Time;durP1;ratioP1;P1;durP2;ratioP2;P2;SDS_P1;SDS_P2;PMS_P1;PMS_P2;Temp;Humidity;BMP_temperature;BMP_pressure;BME280_temperature;BME280_humidity;BME280_pressure;Samples;Min_cycle;Max_cycle;Signal;HPM_P1;HPM_P2
2022/07/06 00:02:23;;;;;;;3.03;2.73;;;18.00;99.90;;;;;;5092267;28;20456;-48
2022/07/06 00:04:50;;;;;;;5.47;2.70;;;18.00;99.90;;;;;;5091854;28;21003;-48
2022/07/06 00:07:17;;;;;;;3.03;2.73;;;18.00;99.90;;;;;;5092341;28;20471;-53
2022/07/06 00:09:46;;;;;;;3.60;2.63;;;18.00;99.90;;;;;;5092011;28;20475;-49
2022/07/06 00:12:13;;;;;;;3.83;2.80;;;17.90;99.90;;;;;;5091728;28;20492;-48
2022/07/06 00:14:39;;;;;;;3.90;3.37;;;17.80;99.90;;;;;;5092211;28;20836;-48
2022/07/06 00:17:06;;;;;;;3.40;3.10;;;17.60;99.90;;;;;;5091742;28;20539;-50
2022/07/06 00:19:33;;;;;;;4.07;3.00;;;17.60;99.90;;;;;;5091899;28;20471;-47
2022/07/06 00:22:00;;;;;;;3.33;2.20;;;17.70;99.90;;;;;;5091749;28;20533;-50
2022/07/06 00:24:27;;;;;;;2.90;2.60;;;17.70;99.90;;;;;;5091462;28;20507;-48
2022/07/06 00:26:55;;;;;;;3.00;2.80;;;17.70;99.90;;;;;;5091617;28;20875;-47
2022/07/06 00:29:22;;;;;;;3.50;3.20;;;17.70;99.90;;;;;;5091292;28;20633;-47
2022/07/06 00:31:49;;;;;;;3.00;2.67;;;17.70;99.90;;;;;;5091782;28;20543;-49
2022/07/06 00:34:16;;;;;;;5.70;3.23;;;17.50;99.90;;;;;;5091477;28;20989;-48
2022/07/06 00:36:43;;;;;;;4.57;3.77;;;16.90;99.90;;;;;;5091268;28;20503;-51
2022/07/06 00:39:10;;;;;;;3.40;2.83;;;16.40;99.90;;;;;;5091209;28;20494;-46
2022/07/06 00:41:37;;;;;;;6.70;3.83;;;15.90;99.90;;;;;;5090980;28;20995;-46
2022/07/06 00:44:09;;;;;;;3.70;3.40;;;16.00;99.90;;;;;;5091099;28;20586;-46
2022/07/06 00:46:36;;;;;;;4.20;3.80;;;16.10;99.90;;;;;;5091048;28;20443;-46
2022/07/06 00:49:03;;;;;;;3.33;3.13;;;16.40;99.90;;;;;;5091021;28;20467;-45
2022/07/06 00:51:33;;;;;;;4.70;4.20;;;16.50;99.90;;;;;;5090680;28;20520;-46
2022/07/06 00:54:03;;;;;;;3.83;3.53;;;16.70;99.90;;;;;;5090586;28;20471;-47
2022/07/06 00:56:32;;;;;;;4.00;3.53;;;16.80;99.90;;;;;;5091066;28;20489;-48
2022/07/06 00:59:00;;;;;;;4.13;3.73;;;16.80;99.90;;;;;;5090625;28;20510;-45
2022/07/06 01:01:29;;;;;;;5.33;4.40;;;16.90;99.90;;;;;;5090724;28;20888;-47
2022/07/06 01:03:56;;;;;;;4.30;3.90;;;17.00;99.90;;;;;;5090630;28;20491;-46
2022/07/06 01:06:23;;;;;;;4.90;4.03;;;17.10;99.90;;;;;;5090915;28;20435;-46
2022/07/06 01:08:50;;;;;;;3.87;3.57;;;17.00;99.90;;;;;;5090626;28;20475;-48
2022/07/06 01:11:19;;;;;;;4.27;3.87;;;17.00;99.90;;;;;;5090446;28;20792;-49
2022/07/06 01:13:47;;;;;;;4.07;3.77;;;17.00;99.90;;;;;;5090801;28;20436;-46
2022/07/06 01:16:14;;;;;;;5.13;3.47;;;17.10;99.90;;;;;;5090779;28;20431;-47
2022/07/06 01:18:43;;;;;;;3.93;3.53;;;17.10;99.90;;;;;;5090548;28;20443;-46
2022/07/06 01:21:13;;;;;;;3.50;3.13;;;17.20;99.90;;;;;;5090266;28;21047;-49
2022/07/06 01:23:44;;;;;;;3.50;3.20;;;17.30;99.90;;;;;;5090437;28;20722;-46
2022/07/06 01:26:13;;;;;;;3.80;3.50;;;17.30;99.90;;;;;;5090595;28;20562;-46
2022/07/06 01:28:40;;;;;;;3.53;3.20;;;17.30;99.90;;;;;;5090199;28;20475;-47
2022/07/06 01:31:15;;;;;;;3.60;3.40;;;17.40;99.90;;;;;;5090339;28;20459;-46
2022/07/06 01:33:42;;;;;;;4.53;3.10;;;17.50;99.90;;;;;;5090411;28;20942;-45
2022/07/06 01:36:11;;;;;;;4.00;3.60;;;17.60;99.90;;;;;;5090141;28;20478;-47
2022/07/06 01:38:45;;;;;;;3.80;3.50;;;17.60;99.90;;;;;;5090148;28;20534;-46
2022/07/06 01:41:12;;;;;;;3.53;3.23;;;17.60;99.90;;;;;;5090056;28;20481;-46
2022/07/06 01:43:40;;;;;;;4.30;3.93;;;17.60;99.90;;;;;;5090153;28;21018;-46
2022/07/06 01:46:07;;;;;;;4.00;2.90;;;17.60;99.90;;;;;;5089957;28;20475;-46
2022/07/06 01:48:34;;;;;;;5.60;3.60;;;17.50;99.90;;;;;;5089949;28;20493;-47
2022/07/06 01:51:01;;;;;;;3.67;3.43;;;17.40;99.90;;;;;;5089443;28;20975;-50
2022/07/06 01:53:29;;;;;;;2.50;2.30;;;17.10;99.90;;;;;;5090154;28;20447;-49
2022/07/06 01:55:56;;;;;;;3.47;3.17;;;17.10;99.90;;;;;;5090101;28;20436;-49
2022/07/06 01:58:23;;;;;;;3.17;2.80;;;17.10;99.90;;;;;;5090141;28;20435;-46
2022/07/06 02:00:50;;;;;;;2.77;2.50;;;17.20;99.90;;;;;;5089612;28;20487;-48
2022/07/06 02:03:17;;;;;;;4.00;3.40;;;17.20;99.90;;;;;;5089959;28;20501;-46
2022/07/06 02:05:44;;;;;;;3.23;2.93;;;17.20;99.90;;;;;;5089696;28;20559;-45
2022/07/06 02:08:11;;;;;;;3.30;2.40;;;17.30;99.90;;;;;;5089769;28;20522;-46
2022/07/06 02:10:40;;;;;;;3.20;2.83;;;17.30;99.90;;;;;;5089703;28;20544;-47
2022/07/06 02:13:07;;;;;;;3.63;2.70;;;17.30;99.90;;;;;;5089536;28;20447;-46
2022/07/06 02:15:34;;;;;;;2.23;2.03;;;17.40;99.90;;;;;;5089755;28;20440;-46
2022/07/06 02:18:01;;;;;;;3.10;2.90;;;17.40;99.90;;;;;;5089904;28;20493;-48
2022/07/06 02:20:28;;;;;;;1.90;1.80;;;17.40;99.90;;;;;;5089553;28;20464;-47
2022/07/06 02:22:55;;;;;;;2.97;2.40;;;17.40;99.90;;;;;;5089822;28;20439;-45
2022/07/06 02:25:22;;;;;;;2.40;2.20;;;17.30;99.90;;;;;;5089553;28;20558;-48
2022/07/06 02:27:50;;;;;;;2.47;2.27;;;17.30;99.90;;;;;;5089586;28;20516;-45
2022/07/06 02:30:17;;;;;;;2.47;2.13;;;17.30;99.90;;;;;;5089471;28;20467;-45
2022/07/06 02:32:44;;;;;;;2.50;2.20;;;17.30;99.90;;;;;;5089814;28;20527;-49
2022/07/06 02:35:11;;;;;;;2.40;2.20;;;17.30;99.90;;;;;;5089680;28;20496;-48
2022/07/06 02:37:38;;;;;;;2.40;2.13;;;17.30;99.90;;;;;;5089631;28;21022;-45
2022/07/06 02:40:06;;;;;;;2.67;2.40;;;17.30;99.90;;;;;;5089192;28;20983;-46
2022/07/06 02:42:33;;;;;;;3.10;2.20;;;17.30;99.90;;;;;;5089428;28;20461;-47
2022/07/06 02:45:02;;;;;;;2.90;2.43;;;17.30;99.90;;;;;;5089457;28;20518;-46
2022/07/06 02:47:29;;;;;;;2.70;2.50;;;17.20;99.90;;;;;;5089778;28;20444;-47
2022/07/06 02:49:56;;;;;;;2.33;2.13;;;17.20;99.90;;;;;;5089320;28;20443;-46
2022/07/06 02:52:23;;;;;;;3.60;3.30;;;17.20;99.90;;;;;;5088870;28;21082;-48
2022/07/06 02:54:51;;;;;;;2.60;2.40;;;17.20;99.90;;;;;;5089351;28;20439;-46
2022/07/06 02:57:18;;;;;;;2.50;2.30;;;17.20;99.90;;;;;;5089319;28;20479;-48
2022/07/06 02:59:45;;;;;;;4.00;2.70;;;17.20;99.90;;;;;;5089087;28;20531;-45
2022/07/06 03:02:14;;;;;;;2.40;2.20;;;17.20;99.90;;;;;;5089581;28;20463;-47
2022/07/06 03:04:41;;;;;;;2.30;2.10;;;17.20;99.90;;;;;;5089508;28;20534;-45
2022/07/06 03:07:08;;;;;;;2.47;2.27;;;17.00;99.90;;;;;;5089773;28;20463;-46
2022/07/06 03:09:35;;;;;;;2.50;2.30;;;16.90;99.90;;;;;;5089555;28;20439;-47
2022/07/06 03:12:02;;;;;;;3.37;2.70;;;16.80;99.90;;;;;;5089166;28;20483;-47
2022/07/06 03:14:29;;;;;;;3.13;2.30;;;16.70;99.90;;;;;;5089206;28;20932;-48
2022/07/06 03:16:55;;;;;;;2.60;2.40;;;16.60;99.90;;;;;;5089589;28;20455;-47
2022/07/06 03:19:24;;;;;;;3.00;2.80;;;16.60;99.90;;;;;;5092458;28;20861;-45
2022/07/06 03:21:51;;;;;;;2.60;2.40;;;16.60;99.90;;;;;;5093194;28;20524;-48
2022/07/06 03:24:18;;;;;;;4.20;3.80;;;16.70;99.90;;;;;;5092889;28;20447;-46
2022/07/06 03:26:45;;;;;;;3.27;3.00;;;16.80;99.90;;;;;;5092618;28;21025;-49
2022/07/06 03:29:12;;;;;;;2.83;2.63;;;16.90;99.90;;;;;;5092558;28;20518;-45
2022/07/06 03:31:39;;;;;;;2.60;2.40;;;17.00;99.90;;;;;;5092565;28;21018;-47
2022/07/06 03:34:06;;;;;;;2.90;2.60;;;17.10;99.90;;;;;;5092511;28;20479;-48
2022/07/06 03:36:34;;;;;;;2.97;2.67;;;17.10;99.90;;;;;;5092529;28;20504;-46
2022/07/06 03:39:01;;;;;;;3.10;2.80;;;17.20;99.90;;;;;;5092354;28;20458;-46
2022/07/06 03:41:28;;;;;;;5.40;2.57;;;17.20;99.90;;;;;;5141800;22;20485;-47
2022/07/06 03:43:55;;;;;;;5.00;2.70;;;17.10;99.90;;;;;;5072380;28;20506;-45
2022/07/06 03:46:22;;;;;;;3.27;3.00;;;16.90;99.90;;;;;;5072069;28;20541;-47
2022/07/06 03:48:49;;;;;;;2.77;2.57;;;16.90;99.90;;;;;;5071821;28;20448;-46
2022/07/06 03:51:16;;;;;;;2.40;2.20;;;16.90;99.90;;;;;;5071480;28;20551;-46
2022/07/06 03:53:44;;;;;;;2.50;2.30;;;17.00;99.90;;;;;;5072280;28;20441;-47
2022/07/06 03:56:29;;;;;;;2.40;2.20;;;17.00;99.90;;;;;;5071967;28;20815;-47
2022/07/06 03:58:57;;;;;;;4.83;2.90;;;17.10;99.90;;;;;;5071768;28;20479;-46
2022/07/06 04:01:24;;;;;;;4.87;2.90;;;17.10;99.90;;;;;;5071746;28;20465;-47
2022/07/06 04:03:51;;;;;;;3.33;3.13;;;17.10;99.90;;;;;;5071713;28;20945;-47
2022/07/06 04:06:18;;;;;;;3.67;3.37;;;17.10;99.90;;;;;;5072013;28;20819;-45
2022/07/06 04:08:47;;;;;;;5.13;3.77;;;17.10;99.90;;;;;;5071658;28;20469;-48
2022/07/06 04:11:14;;;;;;;3.40;3.10;;;17.10;99.90;;;;;;5071200;28;20983;-45
2022/07/06 04:13:41;;;;;;;3.37;3.07;;;17.10;99.90;;;;;;5071578;28;20933;-45
2022/07/06 04:16:08;;;;;;;4.87;3.30;;;17.20;99.90;;;;;;5071691;28;20519;-45
2022/07/06 04:18:36;;;;;;;3.67;3.37;;;17.20;99.90;;;;;;5071579;28;20949;-45
2022/07/06 04:21:03;;;;;;;3.03;2.80;;;17.20;99.90;;;;;;5071321;28;20452;-47
2022/07/06 04:23:30;;;;;;;3.27;2.97;;;17.20;99.90;;;;;;5071299;28;20444;-47
2022/07/06 04:25:58;;;;;;;3.53;3.23;;;17.20;99.90;;;;;;5071519;28;21089;-45
2022/07/06 04:28:25;;;;;;;2.93;2.73;;;17.20;99.90;;;;;;5070898;28;20817;-49
2022/07/06 04:30:52;;;;;;;4.10;3.00;;;17.30;99.90;;;;;;5070744;28;20440;-44
2022/07/06 04:33:19;;;;;;;3.47;3.17;;;17.30;99.90;;;;;;5071289;28;20468;-45
2022/07/06 04:35:46;;;;;;;3.97;3.67;;;17.30;99.90;;;;;;5071312;28;20468;-45
2022/07/06 04:38:13;;;;;;;4.53;2.77;;;17.30;99.90;;;;;;5071458;28;20440;-46
2022/07/06 04:40:40;;;;;;;3.33;2.93;;;17.30;99.90;;;;;;5070777;28;20976;-46
2022/07/06 04:43:08;;;;;;;2.80;2.60;;;17.20;99.90;;;;;;5070914;28;20531;-46
2022/07/06 04:45:35;;;;;;;3.23;2.93;;;17.20;99.90;;;;;;5071026;28;20480;-45
2022/07/06 04:48:02;;;;;;;2.83;2.63;;;17.30;99.90;;;;;;5071011;28;21085;-47
2022/07/06 04:50:29;;;;;;;3.20;3.00;;;17.30;99.90;;;;;;5070502;28;20449;-44
2022/07/06 04:52:56;;;;;;;2.70;2.50;;;17.30;99.90;;;;;;5070396;28;20525;-45
2022/07/06 04:55:23;;;;;;;3.33;3.03;;;17.30;99.90;;;;;;5070587;28;20976;-47
2022/07/06 04:57:52;;;;;;;2.90;2.43;;;17.40;99.90;;;;;;5070765;28;20444;-47
2022/07/06 05:00:21;;;;;;;2.87;2.53;;;17.30;99.90;;;;;;5070533;28;20447;-48
2022/07/06 05:02:48;;;;;;;3.00;2.53;;;17.20;99.90;;;;;;5070733;28;20464;-45
2022/07/06 05:05:15;;;;;;;2.63;2.30;;;17.00;99.90;;;;;;5070738;28;20539;-47
2022/07/06 05:07:42;;;;;;;2.77;2.53;;;16.70;99.90;;;;;;5070588;28;20483;-48
2022/07/06 05:10:10;;;;;;;3.27;2.97;;;16.70;99.90;;;;;;5070288;28;20519;-46
2022/07/06 05:12:38;;;;;;;3.30;3.00;;;16.70;99.90;;;;;;5070073;28;20533;-45
2022/07/06 05:15:06;;;;;;;2.63;2.43;;;16.50;99.90;;;;;;5070461;28;20476;-45
2022/07/06 05:17:34;;;;;;;2.50;1.87;;;16.50;99.90;;;;;;5070272;28;20881;-45
2022/07/06 05:20:01;;;;;;;1.93;1.73;;;16.40;99.90;;;;;;5070533;28;20792;-45
2022/07/06 05:22:28;;;;;;;2.50;1.90;;;16.40;99.90;;;;;;5070243;28;21024;-45
2022/07/06 05:24:55;;;;;;;2.00;1.87;;;16.40;99.90;;;;;;5070185;28;20888;-46
2022/07/06 05:27:22;;;;;;;3.20;2.20;;;16.40;99.90;;;;;;5070253;28;20555;-45
2022/07/06 05:29:49;;;;;;;2.33;2.13;;;16.40;99.90;;;;;;5069844;28;20433;-45
2022/07/06 05:32:15;;;;;;;2.70;2.50;;;16.50;99.90;;;;;;5070436;28;20507;-46
2022/07/06 05:34:44;;;;;;;2.20;1.90;;;16.60;99.90;;;;;;5070501;28;20531;-45
2022/07/06 05:37:11;;;;;;;2.60;2.40;;;16.70;99.90;;;;;;5070028;28;20480;-47
2022/07/06 05:39:38;;;;;;;2.30;2.10;;;16.70;99.90;;;;;;5069620;28;20502;-48
2022/07/06 05:42:06;;;;;;;3.73;2.30;;;16.70;99.90;;;;;;5069699;28;20472;-47
2022/07/06 05:44:33;;;;;;;2.17;1.97;;;16.70;99.90;;;;;;5069581;28;20807;-46
2022/07/06 05:52:26;;;;;;;3.17;2.37;;;16.60;99.90;;;;;;5069251;28;20566;-46
2022/07/06 05:54:53;;;;;;;2.47;2.00;;;16.60;99.90;;;;;;5069841;28;20515;-45
2022/07/06 05:57:20;;;;;;;2.63;2.43;;;16.70;99.90;;;;;;5069249;28;20455;-45
2022/07/06 05:59:47;;;;;;;2.20;2.00;;;16.60;99.90;;;;;;5069705;28;20449;-47
2022/07/06 06:02:14;;;;;;;7.73;6.87;;;16.60;99.90;;;;;;5069614;28;20893;-46
2022/07/06 06:04:41;;;;;;;10.10;7.97;;;16.70;99.90;;;;;;5069631;28;20443;-46
2022/07/06 06:07:08;;;;;;;3.07;2.77;;;16.80;99.90;;;;;;5069452;28;20555;-48
2022/07/06 06:09:36;;;;;;;4.60;2.57;;;17.00;99.90;;;;;;5068797;28;20518;-45
2022/07/06 06:12:03;;;;;;;2.67;1.83;;;17.50;99.90;;;;;;5068522;28;20464;-47
2022/07/06 06:14:30;;;;;;;2.83;1.87;;;18.10;99.90;;;;;;5069321;28;20462;-45
2022/07/06 06:16:57;;;;;;;2.17;1.83;;;18.70;99.90;;;;;;5069400;28;20985;-44
2022/07/06 06:19:24;;;;;;;1.47;1.30;;;19.10;99.90;;;;;;5069223;28;20541;-49
2022/07/06 06:21:51;;;;;;;11.23;2.07;;;19.10;99.90;;;;;;5069476;28;20543;-44
2022/07/06 06:24:18;;;;;;;2.80;1.70;;;19.10;99.90;;;;;;5069064;28;20937;-45
2022/07/06 06:26:47;;;;;;;2.33;2.13;;;19.10;99.90;;;;;;5069307;28;20526;-45
2022/07/06 06:29:14;;;;;;;2.00;1.80;;;19.00;99.90;;;;;;5069144;28;20573;-44
2022/07/06 06:31:41;;;;;;;2.00;1.47;;;19.00;99.90;;;;;;5068397;28;20809;-49
2022/07/06 06:34:07;;;;;;;3.37;1.80;;;18.90;99.90;;;;;;5069006;28;20443;-46
2022/07/06 06:36:34;;;;;;;2.10;1.80;;;18.80;99.90;;;;;;5068014;28;20486;-44
2022/07/06 06:39:02;;;;;;;1.70;1.60;;;18.80;99.90;;;;;;5068908;28;20493;-48
2022/07/06 06:41:29;;;;;;;2.47;1.60;;;18.60;99.90;;;;;;5068693;28;20475;-45
2022/07/06 06:43:57;;;;;;;1.93;1.80;;;18.60;99.90;;;;;;5069207;28;20443;-47
2022/07/06 06:46:24;;;;;;;2.20;2.00;;;18.70;99.90;;;;;;5069188;28;20500;-46
2022/07/06 06:48:51;;;;;;;2.77;1.90;;;18.60;99.90;;;;;;5068460;28;20472;-46
2022/07/06 06:51:18;;;;;;;3.10;2.03;;;18.50;99.90;;;;;;5067821;28;20460;-47
2022/07/06 06:53:45;;;;;;;2.80;1.90;;;18.50;99.90;;;;;;5071023;28;20855;-45
2022/07/06 06:56:11;;;;;;;1.87;1.77;;;18.50;99.90;;;;;;5071525;28;20444;-45
2022/07/06 06:58:39;;;;;;;1.90;1.70;;;18.50;99.90;;;;;;5071574;28;20440;-47
2022/07/06 07:01:07;;;;;;;2.20;2.00;;;18.50;99.90;;;;;;5072031;28;20503;-47
2022/07/06 07:03:34;;;;;;;2.20;2.00;;;18.40;99.90;;;;;;5071845;28;20436;-47
2022/07/06 07:06:01;;;;;;;2.30;2.10;;;18.40;99.90;;;;;;5072264;28;20472;-48
2022/07/06 07:08:28;;;;;;;2.70;1.93;;;18.40;99.90;;;;;;5073060;28;20440;-46
2022/07/06 07:10:55;;;;;;;2.50;2.17;;;18.40;99.90;;;;;;5072719;28;20444;-46
2022/07/06 07:13:22;;;;;;;2.73;2.50;;;18.40;99.90;;;;;;5073243;28;20539;-43
2022/07/06 07:15:49;;;;;;;2.10;1.90;;;18.50;99.90;;;;;;5072984;28;20448;-44
2022/07/06 07:18:17;;;;;;;4.57;2.33;;;18.60;99.90;;;;;;5072922;28;20436;-47
2022/07/06 07:20:44;;;;;;;2.93;1.93;;;18.80;99.90;;;;;;5072725;28;20448;-46
2022/07/06 07:23:11;;;;;;;2.10;1.90;;;19.00;99.90;;;;;;5072627;28;20499;-45
2022/07/06 07:25:38;;;;;;;1.90;1.70;;;19.20;99.90;;;;;;5072586;28;20439;-46
2022/07/06 07:28:05;;;;;;;2.50;2.30;;;19.30;99.90;;;;;;5073021;28;20486;-45
2022/07/06 07:30:32;;;;;;;2.20;2.00;;;19.50;99.90;;;;;;5072688;28;20489;-45
2022/07/06 07:33:00;;;;;;;2.03;1.83;;;19.70;99.90;;;;;;5072361;28;20991;-47
2022/07/06 07:35:29;;;;;;;3.50;3.20;;;19.90;99.90;;;;;;5072599;28;20483;-46
2022/07/06 07:37:56;;;;;;;1.97;1.77;;;20.00;99.90;;;;;;5072436;28;20477;-45
2022/07/06 07:40:23;;;;;;;3.13;2.03;;;20.20;99.90;;;;;;5072134;28;20444;-53
2022/07/06 07:42:50;;;;;;;1.93;1.73;;;20.10;99.90;;;;;;5071801;28;20472;-45
2022/07/06 07:45:17;;;;;;;2.40;1.97;;;19.80;99.90;;;;;;5071921;28;20854;-45
2022/07/06 07:47:44;;;;;;;2.00;1.80;;;19.50;99.90;;;;;;5071817;28;20511;-45
2022/07/06 07:50:12;;;;;;;2.90;1.83;;;19.40;99.90;;;;;;5064929;28;20720;-47
2022/07/06 07:52:40;;;;;;;2.30;2.00;;;19.30;99.90;;;;;;5051633;28;20469;-45
2022/07/06 07:55:08;;;;;;;3.90;2.40;;;19.30;99.90;;;;;;5051822;28;20760;-45
2022/07/06 07:57:35;;;;;;;2.30;1.90;;;19.50;99.90;;;;;;5051640;28;20848;-46
2022/07/06 08:00:02;;;;;;;2.30;2.10;;;19.60;99.90;;;;;;5051682;28;20480;-47
2022/07/06 08:02:29;;;;;;;2.20;2.00;;;19.70;99.90;;;;;;5051755;28;20465;-45
2022/07/06 08:04:56;;;;;;;3.90;2.23;;;19.80;99.90;;;;;;5051563;28;20507;-48
2022/07/06 08:07:23;;;;;;;2.23;2.00;;;19.90;99.90;;;;;;5050838;28;20477;-47
2022/07/06 08:09:51;;;;;;;2.00;1.80;;;20.00;99.90;;;;;;5051662;28;20469;-47
2022/07/06 08:12:18;;;;;;;2.33;2.13;;;19.60;99.90;;;;;;5051249;28;20465;-44
2022/07/06 08:14:46;;;;;;;2.70;2.50;;;19.20;99.90;;;;;;5051598;28;20514;-46
2022/07/06 08:17:13;;;;;;;40.43;7.80;;;19.00;99.90;;;;;;5051563;28;20470;-46
2022/07/06 08:19:39;;;;;;;3.50;2.20;;;19.00;99.90;;;;;;5051351;28;20532;-46
2022/07/06 08:22:07;;;;;;;2.50;2.30;;;19.20;99.90;;;;;;5051037;28;20834;-45
2022/07/06 08:24:35;;;;;;;3.50;2.33;;;19.30;99.90;;;;;;5051649;28;20449;-46
2022/07/06 08:27:04;;;;;;;4.20;2.53;;;19.60;99.90;;;;;;5051582;28;20476;-48
2022/07/06 08:29:31;;;;;;;2.73;2.53;;;20.00;99.90;;;;;;5051253;28;20505;-48
2022/07/06 08:31:58;;;;;;;3.13;2.77;;;20.00;99.90;;;;;;5051380;28;20497;-48
2022/07/06 08:34:25;;;;;;;3.10;2.33;;;20.30;99.90;;;;;;5051210;28;20495;-48
2022/07/06 08:36:52;;;;;;;2.70;2.50;;;20.60;99.90;;;;;;5050907;28;20499;-46
2022/07/06 08:39:19;;;;;;;8.00;3.40;;;20.70;99.90;;;;;;5050919;28;20962;-48
2022/07/06 08:41:48;;;;;;;2.40;2.20;;;20.90;99.90;;;;;;5051064;28;20565;-46
2022/07/06 08:44:16;;;;;;;2.87;2.20;;;21.10;99.90;;;;;;5051232;28;20532;-50
2022/07/06 08:46:44;;;;;;;2.47;2.27;;;20.90;99.90;;;;;;5050851;28;20556;-46
2022/07/06 08:49:15;;;;;;;3.77;2.60;;;21.00;99.90;;;;;;5049988;28;20449;-50
2022/07/06 08:51:42;;;;;;;3.00;2.50;;;21.20;99.90;;;;;;5050148;28;20536;-46
2022/07/06 08:54:10;;;;;;;3.00;2.30;;;21.30;99.90;;;;;;5049905;28;20461;-44
2022/07/06 08:56:37;;;;;;;1.90;1.80;;;21.40;99.90;;;;;;5049933;28;20438;-45
2022/07/06 08:59:04;;;;;;;2.90;2.17;;;21.20;99.90;;;;;;5050169;28;21040;-47
2022/07/06 09:01:33;;;;;;;2.40;2.20;;;21.30;99.90;;;;;;5049846;28;20548;-45
2022/07/06 09:04:03;;;;;;;2.13;1.93;;;21.60;99.90;;;;;;5050419;28;20445;-46
2022/07/06 09:06:31;;;;;;;2.90;2.07;;;21.80;99.90;;;;;;5050182;28;20441;-48
2022/07/06 09:08:58;;;;;;;2.90;2.60;;;21.60;99.90;;;;;;5050264;28;20480;-46
2022/07/06 09:11:26;;;;;;;2.77;2.53;;;21.70;99.90;;;;;;5050520;28;20545;-47
2022/07/06 09:13:53;;;;;;;62.43;8.83;;;21.60;99.90;;;;;;5050679;28;20449;-48
2022/07/06 09:16:29;;;;;;;2.60;2.40;;;21.50;99.90;;;;;;5049975;28;20438;-46
2022/07/06 09:18:57;;;;;;;1.97;1.87;;;21.50;99.90;;;;;;5050544;28;20447;-46
2022/07/06 09:21:26;;;;;;;3.17;2.50;;;21.70;99.90;;;;;;5050405;28;20564;-48
2022/07/06 09:23:57;;;;;;;2.60;2.30;;;21.70;99.90;;;;;;5050650;28;20449;-50
2022/07/06 09:26:24;;;;;;;2.87;2.00;;;21.60;99.90;;;;;;5050222;28;20792;-47
2022/07/06 09:28:52;;;;;;;2.30;2.10;;;21.50;99.90;;;;;;5049851;28;21089;-45
2022/07/06 09:31:19;;;;;;;2.60;2.40;;;21.50;99.90;;;;;;5050386;28;20543;-47
2022/07/06 09:33:59;;;;;;;2.47;2.27;;;21.60;99.90;;;;;;5050178;28;20480;-50
2022/07/06 09:36:40;;;;;;;3.17;2.27;;;21.80;99.90;;;;;;5050375;28;20445;-48
2022/07/06 09:39:21;;;;;;;79.90;12.73;;;21.90;99.90;;;;;;5050275;28;20871;-48
2022/07/06 09:41:49;;;;;;;44.73;28.80;;;21.90;99.90;;;;;;5051605;28;20527;-46
2022/07/06 09:44:21;;;;;;;3.87;3.50;;;22.10;99.90;;;;;;5050294;28;20514;-45
2022/07/06 09:46:49;;;;;;;2.80;2.27;;;22.10;99.90;;;;;;5050145;28;20865;-46
2022/07/06 09:49:20;;;;;;;3.47;2.50;;;22.30;99.90;;;;;;5049421;28;20533;-46
2022/07/06 09:51:47;;;;;;;3.00;2.23;;;22.40;99.90;;;;;;5049364;28;20532;-45
2022/07/06 09:54:15;;;;;;;3.50;2.27;;;22.50;99.90;;;;;;5050153;28;20437;-45
2022/07/06 09:56:46;;;;;;;2.40;2.10;;;22.30;99.90;;;;;;5049952;28;20528;-48
2022/07/06 09:59:14;;;;;;;4.43;2.47;;;22.30;99.90;;;;;;5049412;28;20441;-45
2022/07/06 10:01:42;;;;;;;2.50;2.10;;;22.20;99.90;;;;;;5049754;28;20463;-44
2022/07/06 10:04:12;;;;;;;3.97;2.20;;;22.20;99.90;;;;;;5049873;28;20880;-45
2022/07/06 10:06:41;;;;;;;3.70;2.37;;;22.10;99.90;;;;;;5049707;28;20524;-48
2022/07/06 10:09:09;;;;;;;2.10;1.80;;;22.20;99.90;;;;;;5049493;28;20437;-45
2022/07/06 10:11:40;;;;;;;2.93;2.30;;;22.40;99.90;;;;;;5050070;28;20502;-48
2022/07/06 10:14:08;;;;;;;2.47;1.97;;;22.40;99.90;;;;;;5049842;28;20441;-49
2022/07/06 10:16:36;;;;;;;2.20;2.00;;;22.40;99.90;;;;;;5050097;28;20472;-50
2022/07/06 10:19:06;;;;;;;3.83;2.30;;;22.40;99.90;;;;;;5049241;28;20445;-46
2022/07/06 10:21:34;;;;;;;2.00;1.90;;;22.50;99.90;;;;;;5049158;28;20500;-48
2022/07/06 10:24:04;;;;;;;2.40;2.20;;;22.50;99.90;;;;;;5049048;28;20473;-50
2022/07/06 10:26:33;;;;;;;3.27;2.30;;;22.50;99.90;;;;;;5050723;28;20484;-46
2022/07/06 10:29:00;;;;;;;2.37;2.17;;;22.40;99.90;;;;;;5053026;28;21051;-49
2022/07/06 10:31:29;;;;;;;2.10;1.90;;;22.40;99.90;;;;;;5053430;28;20472;-47
2022/07/06 10:33:58;;;;;;;2.33;2.00;;;22.40;99.90;;;;;;5053564;28;20857;-49
2022/07/06 10:36:25;;;;;;;2.43;2.03;;;22.40;99.90;;;;;;5052472;28;20445;-46
2022/07/06 10:38:53;;;;;;;2.43;2.17;;;22.40;99.90;;;;;;5051200;28;20445;-49
2022/07/06 10:41:31;;;;;;;2.17;1.97;;;22.50;99.90;;;;;;5051977;28;20476;-48
2022/07/06 10:44:15;;;;;;;2.60;1.80;;;22.70;99.90;;;;;;5052810;28;20445;-46
2022/07/06 10:46:42;;;;;;;4.43;2.13;;;22.80;99.90;;;;;;5051720;28;20437;-48
2022/07/06 10:49:17;;;;;;;4.90;2.20;;;22.90;99.90;;;;;;5061435;28;20477;-46
2022/07/06 10:51:44;;;;;;;2.43;1.80;;;23.10;99.90;;;;;;5052638;28;20839;-46
2022/07/06 10:54:11;;;;;;;2.50;2.27;;;23.10;99.90;;;;;;5053235;28;20491;-47
2022/07/06 10:56:44;;;;;;;3.10;2.13;;;23.20;99.90;;;;;;5053012;28;21028;-46
2022/07/06 10:59:12;;;;;;;2.40;1.90;;;23.10;99.90;;;;;;5052914;28;20437;-46
2022/07/06 11:01:39;;;;;;;1.70;1.60;;;23.10;99.90;;;;;;5052551;28;20523;-46
2022/07/06 11:04:08;;;;;;;4.07;1.80;;;23.10;99.90;;;;;;5054290;28;20902;-48
2022/07/06 11:06:37;;;;;;;2.50;2.30;;;23.00;99.90;;;;;;5072385;28;20444;-45
2022/07/06 11:09:05;;;;;;;1.77;1.67;;;23.30;99.90;;;;;;5072475;28;20834;-47
2022/07/06 11:11:45;;;;;;;1.93;1.70;;;23.30;99.90;;;;;;5072664;28;20853;-45
2022/07/06 11:14:14;;;;;;;4.83;2.03;;;23.20;99.90;;;;;;5071944;28;20535;-48
2022/07/06 11:17:02;;;;;;;2.30;2.10;;;23.30;99.90;;;;;;5071758;28;20433;-46
2022/07/06 11:19:29;;;;;;;2.77;1.50;;;23.40;99.90;;;;;;5071859;28;20440;-49
2022/07/06 11:21:59;;;;;;;1.57;1.47;;;23.30;99.90;;;;;;5072072;28;20836;-45
2022/07/06 11:24:28;;;;;;;1.60;1.50;;;23.20;99.90;;;;;;5072323;28;20448;-46
2022/07/06 11:26:58;;;;;;;4.43;1.83;;;23.00;99.90;;;;;;5072134;28;20490;-45
2022/07/06 11:29:27;;;;;;;1.60;1.50;;;23.00;99.90;;;;;;5071763;28;20559;-48
2022/07/06 11:31:56;;;;;;;1.60;1.50;;;23.20;99.90;;;;;;5071995;28;20492;-48
2022/07/06 11:34:25;;;;;;;3.17;2.70;;;23.00;99.90;;;;;;5072307;28;20476;-46
2022/07/06 11:36:57;;;;;;;2.63;1.63;;;22.90;97.40;;;;;;5072134;28;20480;-50
2022/07/06 11:39:26;;;;;;;1.63;1.50;;;22.80;99.80;;;;;;5071114;28;20629;-45
2022/07/06 11:41:57;;;;;;;1.60;1.33;;;22.90;99.90;;;;;;5071885;28;20530;-46
2022/07/06 11:44:24;;;;;;;1.90;1.50;;;23.00;99.90;;;;;;5072039;28;20444;-46
2022/07/06 11:46:51;;;;;;;1.67;1.37;;;23.10;99.50;;;;;;5071950;28;20527;-44
2022/07/06 11:49:19;;;;;;;2.43;2.20;;;23.20;99.90;;;;;;5071624;28;21072;-47
2022/07/06 11:51:47;;;;;;;7.33;2.30;;;23.30;99.90;;;;;;5071268;28;20492;-48
2022/07/06 11:54:15;;;;;;;1.50;1.37;;;23.40;99.90;;;;;;5071754;28;20501;-47
2022/07/06 11:56:48;;;;;;;2.43;1.60;;;23.40;98.00;;;;;;5072254;28;20552;-47
2022/07/06 11:59:17;;;;;;;5.23;2.57;;;23.50;99.90;;;;;;5070049;28;20468;-49
2022/07/06 12:01:45;;;;;;;2.63;1.60;;;23.50;99.50;;;;;;5071479;28;20462;-45
2022/07/06 12:04:12;;;;;;;5.37;4.47;;;23.60;99.60;;;;;;5071664;28;20990;-48
2022/07/06 12:06:39;;;;;;;7.73;2.27;;;23.60;99.90;;;;;;5071260;28;20475;-45
2022/07/06 12:09:06;;;;;;;1.70;1.50;;;23.70;99.90;;;;;;5071157;28;21072;-49
2022/07/06 12:11:35;;;;;;;1.67;1.47;;;23.60;99.90;;;;;;5070575;28;20836;-45
2022/07/06 12:14:04;;;;;;;3.70;1.73;;;23.40;98.00;;;;;;5070991;28;20444;-45
2022/07/06 12:16:35;;;;;;;2.23;1.73;;;23.50;96.70;;;;;;5071149;28;20441;-47
2022/07/06 12:19:02;;;;;;;6.10;2.13;;;23.60;99.90;;;;;;5070999;28;20475;-46
2022/07/06 12:21:30;;;;;;;4.43;2.30;;;23.40;99.90;;;;;;5070710;28;20495;-45
2022/07/06 12:23:57;;;;;;;2.47;1.60;;;23.30;99.00;;;;;;5071479;28;20824;-46
2022/07/06 12:26:25;;;;;;;3.30;2.17;;;23.30;99.90;;;;;;5071023;28;20483;-48
2022/07/06 12:29:02;;;;;;;2.10;1.50;;;23.20;99.90;;;;;;5070631;28;20464;-44
2022/07/06 12:31:35;;;;;;;2.53;2.30;;;23.20;99.90;;;;;;5071131;28;20471;-45
2022/07/06 12:34:02;;;;;;;3.80;1.90;;;23.10;99.90;;;;;;5072309;28;20487;-48
2022/07/06 12:36:29;;;;;;;2.80;2.10;;;22.90;99.90;;;;;;5071199;28;20479;-48
2022/07/06 12:38:56;;;;;;;31.27;5.97;;;22.90;99.90;;;;;;5069927;28;20464;-47
2022/07/06 12:41:31;;;;;;;1.80;1.70;;;22.90;99.90;;;;;;5069848;28;21023;-46
2022/07/06 12:44:09;;;;;;;1.87;1.50;;;22.80;99.90;;;;;;5069998;28;20489;-51
2022/07/06 12:46:38;;;;;;;3.00;2.40;;;22.90;98.00;;;;;;5069338;28;20455;-46
2022/07/06 12:49:16;;;;;;;2.47;1.90;;;22.90;99.90;;;;;;5068400;28;20567;-48
2022/07/06 12:51:55;;;;;;;2.40;2.10;;;23.00;99.90;;;;;;5068116;28;20969;-46
2022/07/06 12:54:22;;;;;;;1.70;1.53;;;23.00;98.80;;;;;;5070454;28;20445;-47
2022/07/06 12:57:13;;;;;;;1.97;1.60;;;23.00;98.30;;;;;;5070743;28;20468;-50